DLONG RJAA-RJFF
Flight info
| Callsign | DLONG |
|---|---|
| Flight time | N/A |
| Altitude | 36000 |
| Route | ENPAR Y16 TEPEX Y88 SUGAL Y20 KIRIN |
| Aircraft | A320/M-SDE3FGHIRWY/LB1 |
Departure
| Time | N/A |
|---|---|
| Airport | Narita International Airport (RJAA) |
Arrival
| Time | 2026-04-28 13:31 |
|---|---|
| Airport | Fukuoka Airport (RJFF) |
| Time | Latitude | Longitude | Altitude | Speed | Heading |
|---|---|---|---|---|---|
| 2026-04-28 13:18 | 34.06302 | 130.22925 | 11547 ft | 409 kts | 249° |
| 2026-04-28 13:18 | 34.05300 | 130.19737 | 10790 ft | 405 kts | 249° |
| 2026-04-28 13:18 | 34.04309 | 130.16576 | 10027 ft | 400 kts | 249° |
| 2026-04-28 13:19 | 34.03059 | 130.13618 | 9316 ft | 395 kts | 232° |
| 2026-04-28 13:19 | 34.01344 | 130.11146 | 9152 ft | 374 kts | 229° |
| 2026-04-28 13:19 | 33.99681 | 130.08836 | 8990 ft | 356 kts | 229° |
| 2026-04-28 13:19 | 33.98093 | 130.06660 | 8950 ft | 335 kts | 229° |
| 2026-04-28 13:20 | 33.96503 | 130.04729 | 8961 ft | 316 kts | 216° |
| 2026-04-28 13:20 | 33.94642 | 130.03478 | 8963 ft | 298 kts | 206° |
| 2026-04-28 13:20 | 33.92837 | 130.02406 | 8961 ft | 281 kts | 206° |
| 2026-04-28 13:20 | 33.91130 | 130.01395 | 8961 ft | 265 kts | 206° |
| 2026-04-28 13:21 | 33.89436 | 130.00748 | 8956 ft | 249 kts | 182° |
| 2026-04-28 13:21 | 33.87780 | 130.01122 | 8961 ft | 242 kts | 153° |
| 2026-04-28 13:21 | 33.86486 | 130.02400 | 8694 ft | 245 kts | 124° |
| 2026-04-28 13:21 | 33.85852 | 130.04293 | 8341 ft | 245 kts | 105° |
| 2026-04-28 13:22 | 33.85422 | 130.06277 | 8024 ft | 244 kts | 105° |
| 2026-04-28 13:22 | 33.84987 | 130.08246 | 7717 ft | 243 kts | 105° |
| 2026-04-28 13:22 | 33.84549 | 130.10200 | 7407 ft | 241 kts | 105° |
| 2026-04-28 13:22 | 33.84112 | 130.12143 | 7110 ft | 240 kts | 105° |
| 2026-04-28 13:23 | 33.83676 | 130.14070 | 6809 ft | 238 kts | 105° |
| 2026-04-28 13:23 | 33.83241 | 130.15986 | 6510 ft | 237 kts | 105° |
| 2026-04-28 13:23 | 33.82809 | 130.17889 | 6210 ft | 235 kts | 105° |
| 2026-04-28 13:23 | 33.82380 | 130.19779 | 5919 ft | 234 kts | 105° |
| 2026-04-28 13:24 | 33.81953 | 130.21659 | 5627 ft | 233 kts | 105° |
| 2026-04-28 13:24 | 33.81526 | 130.23531 | 5337 ft | 231 kts | 106° |
| 2026-04-28 13:24 | 33.81100 | 130.25393 | 5046 ft | 230 kts | 106° |
| 2026-04-28 13:24 | 33.80678 | 130.27244 | 4759 ft | 229 kts | 105° |
| 2026-04-28 13:25 | 33.80224 | 130.29062 | 4524 ft | 223 kts | 115° |
| 2026-04-28 13:25 | 33.79398 | 130.30578 | 4379 ft | 214 kts | 135° |
| 2026-04-28 13:25 | 33.78223 | 130.31621 | 4146 ft | 209 kts | 151° |
| 2026-04-28 13:25 | 33.76977 | 130.32473 | 3882 ft | 208 kts | 151° |
| 2026-04-28 13:26 | 33.75721 | 130.33334 | 3606 ft | 207 kts | 151° |
| 2026-04-28 13:26 | 33.74471 | 130.34192 | 3341 ft | 207 kts | 151° |
| 2026-04-28 13:26 | 33.73223 | 130.35049 | 3057 ft | 206 kts | 151° |
| 2026-04-28 13:26 | 33.72802 | 130.35337 | 2967 ft | 206 kts | 151° |
| 2026-04-28 13:27 | 33.72659 | 130.35436 | 2936 ft | 206 kts | 151° |
| 2026-04-28 13:27 | 33.72419 | 130.35600 | 2883 ft | 206 kts | 151° |
| 2026-04-28 13:27 | 33.71624 | 130.36146 | 2710 ft | 206 kts | 151° |
| 2026-04-28 13:28 | 33.70381 | 130.36998 | 2434 ft | 205 kts | 151° |
| 2026-04-28 13:28 | 33.69164 | 130.37832 | 2160 ft | 197 kts | 151° |
| 2026-04-28 13:28 | 33.68013 | 130.38622 | 1937 ft | 184 kts | 151° |
| 2026-04-28 13:28 | 33.66924 | 130.39367 | 1681 ft | 175 kts | 150° |
| 2026-04-28 13:29 | 33.65919 | 130.40056 | 1462 ft | 161 kts | 150° |
| 2026-04-28 13:29 | 33.64970 | 130.40705 | 1247 ft | 152 kts | 152° |
| 2026-04-28 13:29 | 33.64066 | 130.41324 | 1060 ft | 148 kts | 151° |
| 2026-04-28 13:29 | 33.63185 | 130.41938 | 888 ft | 146 kts | 151° |
| 2026-04-28 13:30 | 33.62302 | 130.42540 | 660 ft | 144 kts | 151° |
| 2026-04-28 13:30 | 33.61443 | 130.43130 | 463 ft | 140 kts | 152° |
| 2026-04-28 13:30 | 33.60600 | 130.43704 | 284 ft | 141 kts | 151° |
| 2026-04-28 13:30 | 33.59736 | 130.44290 | 88 ft | 143 kts | 151° |
| 2026-04-28 13:31 | 33.58380 | 130.45214 | 33 ft | 65 kts | 150° |
| 2026-04-28 13:31 | 33.58136 | 130.45382 | 34 ft | 20 kts | 149° |
| 2026-04-28 13:31 | 33.58010 | 130.45466 | 35 ft | 21 kts | 151° |
| 2026-04-28 13:32 | 33.57936 | 130.45542 | 37 ft | 8 kts | 96° |
| 2026-04-28 13:32 | 33.57956 | 130.45605 | 35 ft | 9 kts | 61° |
| 2026-04-28 13:32 | 33.58002 | 130.45664 | 35 ft | 10 kts | 12° |
| 2026-04-28 13:32 | 33.58071 | 130.45654 | 35 ft | 14 kts | 334° |
| 2026-04-28 13:33 | 33.58170 | 130.45586 | 34 ft | 18 kts | 330° |
| 2026-04-28 13:33 | 33.58285 | 130.45507 | 32 ft | 20 kts | 330° |
| 2026-04-28 13:33 | 33.58416 | 130.45419 | 32 ft | 23 kts | 330° |
| 2026-04-28 13:33 | 33.58559 | 130.45321 | 31 ft | 25 kts | 330° |
| 2026-04-28 13:34 | 33.58709 | 130.45218 | 31 ft | 22 kts | 330° |
| 2026-04-28 13:34 | 33.58844 | 130.45126 | 30 ft | 24 kts | 330° |
| 2026-04-28 13:34 | 33.58993 | 130.45023 | 29 ft | 26 kts | 330° |
| 2026-04-28 13:34 | 33.59156 | 130.44913 | 28 ft | 28 kts | 330° |
| 2026-04-28 13:35 | 33.59307 | 130.44810 | 27 ft | 22 kts | 330° |
| 2026-04-28 13:35 | 33.59438 | 130.44720 | 27 ft | 17 kts | 330° |
| 2026-04-28 13:35 | 33.59523 | 130.44662 | 28 ft | 13 kts | 330° |
| 2026-04-28 13:35 | 33.59594 | 130.44681 | 26 ft | 11 kts | 53° |
| 2026-04-28 13:36 | 33.59630 | 130.44756 | 29 ft | 10 kts | 60° |
| 2026-04-28 13:36 | 33.59651 | 130.44799 | 27 ft | 0 kts | 60° |